LL37 weather

OSF Saint Francis Medical Center Heliport
Peoria, Illinois, United States

Public forecast

Using degrees Fahrenheit for public forecast. Weather courtesy of forecast.io.

Closest aviation weather report (METAR) to OSF Saint Francis Medical Center Heliport

Closest report is General Wayne A. Downing Peoria International Airport, 5.1 nm (9.4 km) WSW. Retrieved 2019/12/10 22:54 UTC (56 minutes ago):

KPIA 102254Z VRB04KT 10SM OVC039 M04/M11 A3031 RMK AO2 SLP277 T10391106

Closest aviation forecast (TAF) to OSF Saint Francis Medical Center Heliport

Closest forecast is General Wayne A. Downing Peoria International Airport, 5.1 nm (9.4 km) WSW. Retrieved 2019/12/10 18:40 UTC (5 hours ago):

TAF KPIA 101737Z 1018/1118 29010KT P6SM FEW250 FM110000 28005KT P6SM SKC FM111200 24005KT P6SM VCSH BKN040 FM111600 21006KT P6SM SCT050